Portada
METAR-TAF:

METAR-TAF

Aeroports :

Ulan-Udè, Rússia

latitud: 51-50N, longitud: 107-36E, altitud: 510 m

Observació

L'informe es va fer fa 31 minuts, a les 20:30 UTC
Vent 2 kt del Oest/Sud-Oest
Temperatura -5°C
Humitat 73%
Pressió 1026 hPa
Visibilitat 10 km o més
Escasses núvols a una alçada de 4600 ft

METAR: UIUU 302030Z 24001MPS 9999 FEW046 M05/M09 Q1026 R26/60D NOSIG RMK QFE725/0967

Hora: 05:01 (21:01 UTC)

Pronòstic

L'informe es va fer fa 1 hora i 1 minuts, a les 20:00 UTC
Pronòstic vàlid del 30 a les 21 UTC al 31 a les 21 UTC
Vent 6 kt del Oest amb ràfegues de 16 kt
Visibilitat 10 km o més
Núvols disperses a una alçada de 4000 ft
Temporalment
l' 31 a les 00 UTC al 31 a les 12 UTC
Vent 16 kt del Oest/Sud-Oest

TAF: UIUU 302000Z 3021/3121 27003G08MPS 9999 SCT040 TEMPO 3100/3112 24008MPS

Observacions i pronòstics meteorològics de més de 4000 aeroports (METAR i TAF).

Les estacions disponibles són els punts grocs i vermells al mapa.

Posi el ratolí al punt desitjat per veure el nom de l'estació.

Feu clic per veure les observacions i els pronòstics meteorològics.

Per canviar el mapa: feu clic els botons verds amb una creu de color negre per apropar; al botó verd amb un guió per allunyar la imatge; o en les fletxes verdes per a mapes adjacents.


METAR-TAF: